createdAt,value
2019-06-26T00:00:36.461Z,24.92
2019-06-26T00:03:05.191Z,23.65
2019-06-26T00:05:33.758Z,21.63
2019-06-26T00:08:02.173Z,21.93
2019-06-26T00:10:30.496Z,21.83
2019-06-26T00:12:58.760Z,21.60
2019-06-26T00:15:27.221Z,23.87
2019-06-26T00:17:55.511Z,22.43
2019-06-26T00:20:23.775Z,22.82
2019-06-26T00:22:52.309Z,23.60
2019-06-26T00:25:20.720Z,24.53
2019-06-26T00:27:49.748Z,23.10
2019-06-26T00:30:18.229Z,24.47
2019-06-26T00:32:46.498Z,23.12
2019-06-26T00:35:15.177Z,21.90
2019-06-26T00:37:43.750Z,23.20
2019-06-26T00:40:12.146Z,24.93
2019-06-26T00:42:41.001Z,24.75
2019-06-26T00:45:09.233Z,24.33
2019-06-26T00:47:38.313Z,23.55
2019-06-26T00:50:07.593Z,22.17
2019-06-26T00:52:36.754Z,22.53
2019-06-26T00:55:06.291Z,24.17
2019-06-26T00:57:34.692Z,23.90
2019-06-26T01:00:06.133Z,22.80
2019-06-26T01:02:34.382Z,22.22
2019-06-26T01:05:06.171Z,22.03
2019-06-26T01:07:34.397Z,22.32
2019-06-26T01:10:03.111Z,24.17
2019-06-26T01:12:31.603Z,22.73
2019-06-26T01:14:59.955Z,21.50
2019-06-26T01:17:28.630Z,21.85
2019-06-26T01:19:57.016Z,21.52
2019-06-26T01:22:25.754Z,23.35
2019-06-26T01:24:54.239Z,25.10
2019-06-26T01:27:22.959Z,23.17
2019-06-26T01:29:51.785Z,21.93
2019-06-26T01:32:20.260Z,23.57
2019-06-26T01:34:48.560Z,22.50
2019-06-26T01:37:16.820Z,22.17
2019-06-26T01:39:45.365Z,21.00
2019-06-26T01:42:13.771Z,20.20
2019-06-26T01:44:42.644Z,19.90
2019-06-26T01:47:11.415Z,20.80
2019-06-26T01:49:39.816Z,20.83
2019-06-26T01:52:08.305Z,22.43
2019-06-26T01:54:37.014Z,20.52
2019-06-26T01:57:05.452Z,21.20
2019-06-26T01:59:34.767Z,20.67
2019-06-26T02:02:03.051Z,19.52
2019-06-26T02:04:31.408Z,19.70
2019-06-26T02:07:00.585Z,19.23
2019-06-26T02:09:28.890Z,20.45
2019-06-26T02:12:00.346Z,19.87
2019-06-26T02:14:31.384Z,18.90
2019-06-26T02:16:57.946Z,20.43
2019-06-26T02:19:27.733Z,21.77
2019-06-26T02:21:56.078Z,24.85
2019-06-26T02:24:24.706Z,21.10
2019-06-26T02:26:53.053Z,21.93
2019-06-26T02:29:21.256Z,23.20
2019-06-26T02:31:49.487Z,23.17
2019-06-26T02:34:17.863Z,23.13
2019-06-26T02:36:46.685Z,23.13
2019-06-26T02:39:15.005Z,23.93
2019-06-26T02:41:43.429Z,24.40
2019-06-26T02:44:12.270Z,23.10
2019-06-26T02:46:40.844Z,23.50
2019-06-26T02:49:10.369Z,24.27
2019-06-26T02:51:38.745Z,23.40
2019-06-26T02:54:07.283Z,24.30
2019-06-26T02:56:35.735Z,23.93
2019-06-26T02:59:04.308Z,22.15
2019-06-26T03:01:32.595Z,24.67
2019-06-26T03:04:01.220Z,21.85
2019-06-26T03:06:29.551Z,23.37
2019-06-26T03:08:58.757Z,24.35
2019-06-26T03:11:27.143Z,23.87
2019-06-26T03:13:55.711Z,24.70
2019-06-26T03:16:24.407Z,22.27
2019-06-26T03:18:52.871Z,22.65
2019-06-26T03:21:21.379Z,24.67
2019-06-26T03:23:49.905Z,27.85
2019-06-26T03:26:18.664Z,34.20
2019-06-26T03:28:46.933Z,23.77
2019-06-26T03:31:15.281Z,24.47
2019-06-26T03:33:44.648Z,23.60
2019-06-26T03:36:13.024Z,25.33
2019-06-26T03:38:41.303Z,23.63
2019-06-26T03:41:09.718Z,25.10
2019-06-26T03:43:38.518Z,24.07
2019-06-26T03:46:07.427Z,26.27
2019-06-26T03:48:36.507Z,24.27
2019-06-26T03:51:05.200Z,24.93
2019-06-26T03:53:34.122Z,33.30
2019-06-26T03:56:03.118Z,24.90
2019-06-26T03:58:32.692Z,23.20
2019-06-26T04:01:01.552Z,28.43
2019-06-26T04:03:30.379Z,26.30
2019-06-26T04:05:59.348Z,26.93
2019-06-26T04:08:27.809Z,22.02
2019-06-26T04:10:57.326Z,26.70
2019-06-26T04:13:26.245Z,22.43
2019-06-26T04:15:55.617Z,24.00
2019-06-26T04:18:24.463Z,24.37
2019-06-26T04:20:53.371Z,23.80
2019-06-26T04:23:21.784Z,29.02
2019-06-26T04:25:50.685Z,26.37
2019-06-26T04:28:18.876Z,25.17
2019-06-26T04:30:47.181Z,24.53
2019-06-26T04:33:15.764Z,26.75
2019-06-26T04:35:44.373Z,26.10
2019-06-26T04:38:13.064Z,27.87
2019-06-26T04:40:41.396Z,27.50
2019-06-26T04:43:10.023Z,28.17
2019-06-26T04:45:38.446Z,23.47
2019-06-26T04:48:07.505Z,22.00
2019-06-26T04:50:36.491Z,22.62
2019-06-26T04:53:04.761Z,19.55
2019-06-26T04:55:33.649Z,22.00
2019-06-26T04:58:02.134Z,18.17
2019-06-26T05:00:30.755Z,18.23
2019-06-26T05:03:00.186Z,18.15
2019-06-26T05:05:38.983Z,18.50
2019-06-26T05:07:58.600Z,19.02
2019-06-26T05:10:27.185Z,21.12
2019-06-26T05:12:56.466Z,19.30
2019-06-26T05:15:25.586Z,19.07
2019-06-26T05:17:53.937Z,17.98
2019-06-26T05:20:22.337Z,19.45
2019-06-26T05:22:51.027Z,24.15
2019-06-26T05:25:19.600Z,22.65
2019-06-26T05:27:48.423Z,24.15
2019-06-26T05:30:16.776Z,20.23
2019-06-26T05:32:45.580Z,19.87
2019-06-26T05:35:14.261Z,18.23
2019-06-26T05:37:42.941Z,15.00
2019-06-26T05:40:11.479Z,15.40
2019-06-26T05:42:39.874Z,15.15
2019-06-26T05:45:08.420Z,17.55
2019-06-26T05:47:36.633Z,16.87
2019-06-26T05:50:05.631Z,18.60
2019-06-26T05:52:33.998Z,17.92
2019-06-26T05:55:02.363Z,17.90
2019-06-26T05:57:31.017Z,17.17
2019-06-26T05:59:59.448Z,17.57
2019-06-26T06:02:27.774Z,16.30
2019-06-26T06:04:56.178Z,16.42
2019-06-26T06:07:25.057Z,17.10
2019-06-26T06:09:53.458Z,17.37
2019-06-26T06:12:22.152Z,16.30
2019-06-26T06:14:51.449Z,15.55
2019-06-26T06:17:19.922Z,15.48
2019-06-26T06:19:48.207Z,15.30
2019-06-26T06:22:17.201Z,14.80
2019-06-26T06:24:46.737Z,14.47
2019-06-26T06:27:15.082Z,13.28
2019-06-26T06:29:43.684Z,13.53
2019-06-26T06:32:12.515Z,13.10
2019-06-26T06:34:40.918Z,12.88
2019-06-26T06:37:09.293Z,12.88
2019-06-26T06:39:37.774Z,14.13
2019-06-26T06:42:06.156Z,12.50
2019-06-26T06:44:34.552Z,12.95
2019-06-26T06:47:04.884Z,12.93
2019-06-26T06:49:33.449Z,12.58
2019-06-26T06:52:01.834Z,12.53
2019-06-26T06:54:30.322Z,12.78
2019-06-26T06:56:58.867Z,13.35
2019-06-26T06:59:27.363Z,11.30
2019-06-26T07:01:55.976Z,11.08
2019-06-26T07:04:24.788Z,11.25
2019-06-26T07:06:53.230Z,10.65
2019-06-26T07:09:21.817Z,10.98
2019-06-26T07:11:50.303Z,11.83
2019-06-26T07:14:18.795Z,9.58
2019-06-26T07:16:49.207Z,8.85
2019-06-26T07:19:17.788Z,11.60
2019-06-26T07:21:46.336Z,8.13
2019-06-26T07:24:14.936Z,8.95
2019-06-26T07:26:43.182Z,8.50
2019-06-26T07:29:11.753Z,8.28
2019-06-26T07:31:40.485Z,8.50
2019-06-26T07:34:08.898Z,8.68
2019-06-26T07:36:37.314Z,8.13
2019-06-26T07:39:06.020Z,8.60
2019-06-26T07:41:35.007Z,8.63
2019-06-26T07:44:03.382Z,8.50
2019-06-26T07:46:31.692Z,9.30
2019-06-26T07:49:00.319Z,8.53
2019-06-26T07:51:29.044Z,10.15
2019-06-26T07:53:57.660Z,9.18
2019-06-26T07:56:25.998Z,9.03
2019-06-26T07:58:54.316Z,9.13
2019-06-26T08:01:23.053Z,8.60
2019-06-26T08:03:51.340Z,9.10
2019-06-26T08:06:19.605Z,9.05
2019-06-26T08:08:48.083Z,8.93
2019-06-26T08:11:16.450Z,10.03
2019-06-26T08:13:44.811Z,8.88
2019-06-26T08:16:13.238Z,10.82
2019-06-26T08:18:41.908Z,9.90
2019-06-26T08:21:12.609Z,8.63
2019-06-26T08:23:40.618Z,9.40
2019-06-26T08:26:09.034Z,8.45
2019-06-26T08:28:37.310Z,8.40
2019-06-26T08:31:05.723Z,8.35
2019-06-26T08:33:34.008Z,8.33
2019-06-26T08:36:02.723Z,8.25
2019-06-26T08:38:30.946Z,8.63
2019-06-26T08:40:59.368Z,8.33
2019-06-26T08:43:31.029Z,9.40
2019-06-26T08:45:58.273Z,8.33
2019-06-26T08:48:39.099Z,9.70
2019-06-26T08:50:56.482Z,8.80
2019-06-26T08:53:24.924Z,9.10
2019-06-26T08:55:53.284Z,9.03
2019-06-26T08:58:21.869Z,7.90
2019-06-26T09:00:50.375Z,8.88
2019-06-26T09:03:18.621Z,8.28
2019-06-26T09:05:48.637Z,8.88
2019-06-26T09:08:17.409Z,8.50
2019-06-26T09:10:46.031Z,7.70
2019-06-26T09:13:14.375Z,8.10
2019-06-26T09:15:42.918Z,8.30
2019-06-26T09:18:11.580Z,8.05
2019-06-26T09:20:41.094Z,8.40
2019-06-26T09:23:09.549Z,7.62
2019-06-26T09:25:37.776Z,7.92
2019-06-26T09:28:06.098Z,8.38
2019-06-26T09:30:34.348Z,7.60
2019-06-26T09:33:03.115Z,7.33
2019-06-26T09:35:31.361Z,7.70
2019-06-26T09:37:59.856Z,10.13
2019-06-26T09:40:31.618Z,7.25
2019-06-26T09:42:59.058Z,11.48
2019-06-26T09:45:27.738Z,6.25
2019-06-26T09:47:56.630Z,7.28
2019-06-26T09:50:26.469Z,7.10
2019-06-26T09:52:54.802Z,6.87
2019-06-26T09:55:23.281Z,7.75
2019-06-26T09:57:51.494Z,6.40
2019-06-26T10:00:20.986Z,6.75
2019-06-26T10:02:50.166Z,7.17
2019-06-26T10:05:18.474Z,6.33
2019-06-26T10:07:46.773Z,7.00
2019-06-26T10:10:16.497Z,6.78
2019-06-26T10:12:45.185Z,6.30
2019-06-26T10:15:13.818Z,6.30
2019-06-26T10:17:42.241Z,6.37
2019-06-26T10:20:11.067Z,6.95
2019-06-26T10:22:40.264Z,6.30
2019-06-26T10:25:11.285Z,11.25
2019-06-26T10:27:38.736Z,6.97
2019-06-26T10:30:07.546Z,7.25
2019-06-26T10:32:36.012Z,7.60
2019-06-26T10:35:05.403Z,7.12
2019-06-26T10:37:33.802Z,7.10
2019-06-26T10:40:02.297Z,9.48
2019-06-26T10:42:30.767Z,5.75
2019-06-26T10:44:59.256Z,8.65
2019-06-26T10:47:27.543Z,6.65
2019-06-26T10:49:55.805Z,6.72
2019-06-26T10:52:24.355Z,6.78
2019-06-26T10:54:52.980Z,5.97
2019-06-26T10:57:21.225Z,6.40
2019-06-26T10:59:50.139Z,6.33
2019-06-26T11:02:18.607Z,6.58
2019-06-26T11:04:46.938Z,6.50
2019-06-26T11:07:15.265Z,7.62
2019-06-26T11:09:43.496Z,6.47
2019-06-26T11:12:11.797Z,6.65
2019-06-26T11:14:40.133Z,7.12
2019-06-26T11:17:08.916Z,6.28
2019-06-26T11:19:43.705Z,5.92
2019-06-26T11:22:07.661Z,6.55
2019-06-26T11:24:37.592Z,5.83
2019-06-26T11:27:05.949Z,6.58
2019-06-26T11:29:34.525Z,6.33
2019-06-26T11:32:02.809Z,6.70
2019-06-26T11:34:31.848Z,6.53
2019-06-26T11:37:04.205Z,6.42
2019-06-26T11:39:30.948Z,6.10
2019-06-26T11:41:59.440Z,5.97
2019-06-26T11:44:27.837Z,6.45
2019-06-26T11:46:56.151Z,6.10
2019-06-26T11:49:24.447Z,7.90
2019-06-26T11:51:52.948Z,5.87
2019-06-26T11:54:21.277Z,8.03
2019-06-26T11:56:49.980Z,7.40
2019-06-26T11:59:18.326Z,9.33
2019-06-26T12:01:46.745Z,6.87
2019-06-26T12:04:16.838Z,7.25
2019-06-26T12:06:46.247Z,13.48
2019-06-26T12:09:14.800Z,6.95
2019-06-26T12:11:43.205Z,7.87
2019-06-26T12:14:11.519Z,8.00
2019-06-26T12:16:40.184Z,7.12
2019-06-26T12:19:08.552Z,7.87
2019-06-26T12:21:36.942Z,10.10
2019-06-26T12:24:05.163Z,6.80
2019-06-26T12:26:34.485Z,6.37
2019-06-26T12:29:02.975Z,7.15
2019-06-26T12:31:32.064Z,8.10
2019-06-26T12:34:00.644Z,6.92
2019-06-26T12:36:29.462Z,10.32
2019-06-26T12:38:58.646Z,9.45
2019-06-26T12:41:27.006Z,6.60
2019-06-26T12:43:55.299Z,8.53
2019-06-26T12:46:23.702Z,6.47
2019-06-26T12:48:52.716Z,22.52
2019-06-26T12:51:21.368Z,5.35
2019-06-26T12:53:49.691Z,6.92
2019-06-26T12:56:19.037Z,7.53
2019-06-26T12:58:47.435Z,6.37
2019-06-26T13:01:16.346Z,9.10
2019-06-26T13:03:44.983Z,5.92
2019-06-26T13:06:14.083Z,6.37
2019-06-26T13:08:42.649Z,5.45
2019-06-26T13:11:10.996Z,5.33
2019-06-26T13:13:39.585Z,5.78
2019-06-26T13:16:07.993Z,6.40
2019-06-26T13:18:36.733Z,6.37
2019-06-26T13:21:05.513Z,6.12
2019-06-26T13:23:34.675Z,5.70
2019-06-26T13:26:03.061Z,7.35
2019-06-26T13:28:33.066Z,7.20
2019-06-26T13:31:01.526Z,7.03
2019-06-26T13:33:30.466Z,6.28
2019-06-26T13:35:59.329Z,5.90
2019-06-26T13:38:28.428Z,6.37
2019-06-26T13:40:57.209Z,7.78
2019-06-26T13:43:26.275Z,6.05
2019-06-26T13:45:54.548Z,6.92
2019-06-26T13:48:23.148Z,9.10
2019-06-26T13:51:04.993Z,5.28
2019-06-26T13:53:22.457Z,5.83
2019-06-26T13:55:51.218Z,5.75
2019-06-26T13:58:20.683Z,5.78
2019-06-26T14:00:48.987Z,8.65
2019-06-26T14:03:17.523Z,5.92
2019-06-26T14:05:47.044Z,7.15
2019-06-26T14:08:15.596Z,5.80
2019-06-26T14:10:44.190Z,7.28
2019-06-26T14:13:12.602Z,6.58
2019-06-26T14:15:41.791Z,6.95
2019-06-26T14:18:10.017Z,5.65
2019-06-26T14:20:38.380Z,5.10
2019-06-26T14:23:06.707Z,5.97
2019-06-26T14:25:35.184Z,7.33
2019-06-26T14:28:03.765Z,5.65
2019-06-26T14:30:32.338Z,8.20
2019-06-26T14:33:00.777Z,5.67
2019-06-26T14:35:29.874Z,4.72
2019-06-26T14:37:58.293Z,4.60
2019-06-26T14:40:26.594Z,4.00
2019-06-26T14:42:55.675Z,4.30
2019-06-26T14:45:24.077Z,5.37
2019-06-26T14:47:52.280Z,5.67
2019-06-26T14:50:20.718Z,4.37
2019-06-26T14:52:49.781Z,6.50
2019-06-26T14:55:18.304Z,4.20
2019-06-26T14:57:46.951Z,4.12
2019-06-26T15:00:16.423Z,3.70
2019-06-26T15:02:44.936Z,4.17
2019-06-26T15:05:13.419Z,6.40
2019-06-26T15:07:41.879Z,5.37
2019-06-26T15:10:12.027Z,3.98
2019-06-26T15:12:41.189Z,4.05
2019-06-26T15:15:09.795Z,6.35
2019-06-26T15:17:38.154Z,3.90
2019-06-26T15:20:08.445Z,5.17
2019-06-26T15:22:37.286Z,5.30
2019-06-26T15:25:07.053Z,4.53
2019-06-26T15:27:36.286Z,4.65
2019-06-26T15:30:08.672Z,6.00
2019-06-26T15:32:38.057Z,4.37
2019-06-26T15:35:07.085Z,4.33
2019-06-26T15:37:35.378Z,5.20
2019-06-26T15:40:04.940Z,4.55
2019-06-26T15:42:33.411Z,4.33
2019-06-26T15:45:02.027Z,4.70
2019-06-26T15:47:30.276Z,4.70
2019-06-26T15:49:59.460Z,4.25
2019-06-26T15:52:31.410Z,4.55
2019-06-26T15:54:58.471Z,4.75
2019-06-26T15:57:27.123Z,4.40
2019-06-26T15:59:55.887Z,4.60
2019-06-26T16:02:24.313Z,6.17
2019-06-26T16:04:52.916Z,4.95
2019-06-26T16:07:21.277Z,4.85
2019-06-26T16:09:49.678Z,6.83
2019-06-26T16:12:18.662Z,6.72
2019-06-26T16:14:47.217Z,5.05
2019-06-26T16:17:20.281Z,4.83
2019-06-26T16:19:48.600Z,6.50
2019-06-26T16:22:31.059Z,5.20
2019-06-26T16:24:47.106Z,4.75
2019-06-26T16:27:15.787Z,4.85
2019-06-26T16:29:44.463Z,7.53
2019-06-26T16:32:14.157Z,5.60
2019-06-26T16:34:43.794Z,7.50
2019-06-26T16:37:12.578Z,5.83
2019-06-26T16:39:41.261Z,9.20
2019-06-26T16:42:09.746Z,5.40
2019-06-26T16:44:38.372Z,5.17
2019-06-26T16:47:06.827Z,5.12
2019-06-26T16:49:35.777Z,6.17
2019-06-26T16:52:04.146Z,7.53
2019-06-26T16:54:32.362Z,7.42
2019-06-26T16:57:01.017Z,8.43
2019-06-26T16:59:29.492Z,12.33
2019-06-26T17:01:57.849Z,7.20
2019-06-26T17:04:26.713Z,10.72
2019-06-26T17:06:55.316Z,15.98
2019-06-26T17:09:25.369Z,12.00
2019-06-26T17:11:53.749Z,97.12
2019-06-26T17:14:22.238Z,10.80
2019-06-26T17:16:51.149Z,10.10
2019-06-26T17:19:20.019Z,7.75
2019-06-26T17:21:48.700Z,6.00
2019-06-26T17:24:17.089Z,9.25
2019-06-26T17:26:45.541Z,6.85
2019-06-26T17:29:13.944Z,6.53
2019-06-26T17:31:42.573Z,7.87
2019-06-26T17:34:11.140Z,7.42
2019-06-26T17:36:40.811Z,7.97
2019-06-26T17:39:09.508Z,8.53
2019-06-26T17:41:38.391Z,6.47
2019-06-26T17:44:07.458Z,9.13
2019-06-26T17:46:37.144Z,7.85
2019-06-26T17:49:05.674Z,6.90
2019-06-26T17:51:34.237Z,9.25
2019-06-26T17:54:02.872Z,8.93
2019-06-26T17:56:32.947Z,10.32
2019-06-26T17:59:01.861Z,8.15
2019-06-26T18:01:30.747Z,8.20
2019-06-26T18:03:59.774Z,7.60
2019-06-26T18:06:28.414Z,8.55
2019-06-26T18:08:57.240Z,8.05
2019-06-26T18:11:26.294Z,8.98
2019-06-26T18:13:54.979Z,7.72
2019-06-26T18:16:24.871Z,13.83
2019-06-26T18:18:53.316Z,7.92
2019-06-26T18:21:22.260Z,7.90
2019-06-26T18:23:51.220Z,9.00
2019-06-26T18:26:20.515Z,11.95
2019-06-26T18:28:49.502Z,13.55
2019-06-26T18:31:19.664Z,11.97
2019-06-26T18:33:48.044Z,10.23
2019-06-26T18:36:16.604Z,10.40
2019-06-26T18:38:47.634Z,9.73
2019-06-26T18:41:18.543Z,8.60
2019-06-26T18:43:46.876Z,11.73
2019-06-26T18:46:16.413Z,8.95
2019-06-26T18:48:45.291Z,9.50
2019-06-26T18:51:14.122Z,10.95
2019-06-26T18:53:53.124Z,10.20
2019-06-26T18:56:13.702Z,13.98
2019-06-26T18:58:42.574Z,9.03
2019-06-26T19:01:11.624Z,8.80
2019-06-26T19:03:40.666Z,11.35
2019-06-26T19:06:12.589Z,12.20
2019-06-26T19:08:41.211Z,8.70
2019-06-26T19:11:09.748Z,8.48
2019-06-26T19:13:39.348Z,9.55
2019-06-26T19:16:07.732Z,11.18
2019-06-26T19:18:36.552Z,10.60
2019-06-26T19:21:05.714Z,13.62
2019-06-26T19:23:34.611Z,14.23
2019-06-26T19:26:04.358Z,11.45
2019-06-26T19:28:34.571Z,10.08
2019-06-26T19:31:03.178Z,10.50
2019-06-26T19:33:32.484Z,13.53
2019-06-26T19:36:01.916Z,12.07
2019-06-26T19:38:31.312Z,14.78
2019-06-26T19:41:00.972Z,12.40
2019-06-26T19:43:30.840Z,11.12
2019-06-26T19:46:00.748Z,12.05
2019-06-26T19:48:30.093Z,12.98
2019-06-26T19:51:00.060Z,10.23
2019-06-26T19:53:29.162Z,10.80
2019-06-26T19:55:58.760Z,13.95
2019-06-26T19:58:27.790Z,11.20
2019-06-26T20:00:56.487Z,11.30
2019-06-26T20:03:25.169Z,11.22
2019-06-26T20:05:54.272Z,10.75
2019-06-26T20:08:23.334Z,10.70
2019-06-26T20:10:52.333Z,10.70
2019-06-26T20:13:20.741Z,14.58
2019-06-26T20:15:49.193Z,20.00
2019-06-26T20:18:17.603Z,34.83
2019-06-26T20:20:46.164Z,25.10
2019-06-26T20:23:15.044Z,96.45
2019-06-26T20:25:44.492Z,126.05
2019-06-26T20:28:13.590Z,47.60
2019-06-26T20:30:42.175Z,42.70
2019-06-26T20:33:10.644Z,23.10
2019-06-26T20:35:39.318Z,24.77
2019-06-26T20:38:08.081Z,23.22
2019-06-26T20:40:36.754Z,17.32
2019-06-26T20:43:05.943Z,16.93
2019-06-26T20:45:34.861Z,13.18
2019-06-26T20:48:04.065Z,12.40
2019-06-26T20:50:35.984Z,13.30
2019-06-26T20:53:04.807Z,12.73
2019-06-26T20:55:33.493Z,13.22
2019-06-26T20:58:02.051Z,12.00
2019-06-26T21:00:30.863Z,12.25
2019-06-26T21:02:59.448Z,11.93
2019-06-26T21:05:29.078Z,11.78
2019-06-26T21:07:57.614Z,13.18
2019-06-26T21:10:27.094Z,12.00
2019-06-26T21:12:55.757Z,11.00
2019-06-26T21:15:25.033Z,10.75
2019-06-26T21:17:53.917Z,11.88
2019-06-26T21:20:22.632Z,11.35
2019-06-26T21:22:51.165Z,13.83
2019-06-26T21:25:20.001Z,13.95
2019-06-26T21:27:49.191Z,15.72
2019-06-26T21:30:18.146Z,17.95
2019-06-26T21:32:47.049Z,16.15
2019-06-26T21:35:15.590Z,16.85
2019-06-26T21:37:44.317Z,18.00
2019-06-26T21:40:13.150Z,20.77
2019-06-26T21:42:41.410Z,24.00
2019-06-26T21:45:09.850Z,29.92
2019-06-26T21:47:38.978Z,35.25
2019-06-26T21:50:07.196Z,28.50
2019-06-26T21:52:35.907Z,27.90
2019-06-26T21:55:05.243Z,31.20
2019-06-26T21:57:33.918Z,30.40
2019-06-26T22:00:02.413Z,33.75
2019-06-26T22:02:33.604Z,33.35
2019-06-26T22:05:01.983Z,32.65
2019-06-26T22:07:30.460Z,32.98
2019-06-26T22:09:59.421Z,31.93
2019-06-26T22:12:27.988Z,29.05
2019-06-26T22:14:56.986Z,26.75
2019-06-26T22:17:25.690Z,32.78
2019-06-26T22:19:54.673Z,31.87
2019-06-26T22:22:22.997Z,27.25
2019-06-26T22:24:51.508Z,24.87
2019-06-26T22:27:20.567Z,27.40
2019-06-26T22:29:48.821Z,27.30
2019-06-26T22:32:17.501Z,21.45
2019-06-26T22:34:48.170Z,25.65
2019-06-26T22:37:16.906Z,22.37
2019-06-26T22:39:46.151Z,20.37
2019-06-26T22:42:14.623Z,18.60
2019-06-26T22:44:43.073Z,18.73
2019-06-26T22:47:12.513Z,22.50
2019-06-26T22:49:41.402Z,23.20
2019-06-26T22:52:09.759Z,18.90
2019-06-26T22:54:38.034Z,19.07
2019-06-26T22:57:06.841Z,20.30
2019-06-26T22:59:35.902Z,22.27
2019-06-26T23:02:04.224Z,17.85
2019-06-26T23:04:33.032Z,22.48
2019-06-26T23:07:01.253Z,16.73
2019-06-26T23:09:29.655Z,17.12
2019-06-26T23:11:58.537Z,16.50
2019-06-26T23:14:26.852Z,17.98
2019-06-26T23:16:55.954Z,16.15
2019-06-26T23:19:24.592Z,14.80
2019-06-26T23:21:52.976Z,14.95
2019-06-26T23:24:21.700Z,17.05
2019-06-26T23:26:50.354Z,17.02
2019-06-26T23:29:18.716Z,13.10
2019-06-26T23:31:47.066Z,13.48
2019-06-26T23:34:15.471Z,13.08
2019-06-26T23:36:44.019Z,13.43
2019-06-26T23:39:12.503Z,15.40
2019-06-26T23:41:41.111Z,12.28
2019-06-26T23:44:09.487Z,14.18
2019-06-26T23:46:37.854Z,14.07
2019-06-26T23:49:07.269Z,11.63
2019-06-26T23:51:36.042Z,17.52
2019-06-26T23:54:04.525Z,13.58
2019-06-26T23:56:40.552Z,13.38
2019-06-26T23:59:02.677Z,12.73
